Time;durP1;ratioP1;P1;durP2;ratioP2;P2;SDS_P1;SDS_P2;PMS_P1;PMS_P2;Temp;Humidity;BMP_temperature;BMP_pressure;BME280_temperature;BME280_humidity;BME280_pressure;Samples;Min_cycle;Max_cycle;Signal;HPM_P1;HPM_P2
2024/01/20 00:00:56;;;;;;;2.92;1.15;;;;;;;4.63;100.00;101577.09;2088072;28;20222;-69
2024/01/20 00:01:57;;;;;;;0.90;0.60;;;;;;;4.63;100.00;101568.84;2088415;28;20245;-69
2024/01/20 00:02:58;;;;;;;0.73;0.60;;;;;;;4.68;100.00;101571.28;2087886;28;20190;-68
2024/01/20 00:03:58;;;;;;;0.90;0.50;;;;;;;4.65;100.00;101586.53;2087608;28;20193;-69
2024/01/20 00:04:59;;;;;;;1.27;0.80;;;;;;;4.73;100.00;101590.19;2088192;28;20219;-68
2024/01/20 00:05:59;;;;;;;1.53;0.70;;;;;;;4.74;100.00;101580.78;2088379;28;20219;-69
2024/01/20 00:07:00;;;;;;;0.97;0.60;;;;;;;4.79;100.00;101567.53;2087543;28;20745;-69
2024/01/20 00:08:00;;;;;;;1.50;0.70;;;;;;;4.85;100.00;101577.03;2087591;28;20636;-68
2024/01/20 00:09:01;;;;;;;1.23;0.60;;;;;;;4.82;100.00;101575.03;2088369;28;20653;-69
2024/01/20 00:10:01;;;;;;;0.87;0.53;;;;;;;4.84;100.00;101582.91;2088569;28;20200;-68
2024/01/20 00:11:02;;;;;;;0.80;0.60;;;;;;;4.05;100.00;101452.31;2088173;28;20683;-69
2024/01/20 00:12:03;;;;;;;1.00;0.83;;;;;;;4.86;100.00;101586.84;2087904;28;20232;-69
2024/01/20 00:13:04;;;;;;;1.27;0.80;;;;;;;4.84;100.00;101580.16;2087460;28;20195;-68
2024/01/20 00:14:04;;;;;;;1.70;1.00;;;;;;;4.36;100.00;101493.94;2087783;28;20206;-68
2024/01/20 00:15:09;;;;;;;1.17;0.73;;;;;;;4.88;100.00;101573.53;2087882;28;20211;-69
2024/01/20 00:16:09;;;;;;;1.02;0.63;;;;;;;4.82;100.00;101574.25;2088472;28;20199;-69
2024/01/20 00:17:10;;;;;;;1.00;0.70;;;;;;;4.51;100.00;101530.66;2088091;28;20279;-68
2024/01/20 00:18:10;;;;;;;0.90;0.50;;;;;;;4.91;100.00;101593.97;2088628;28;20192;-69
2024/01/20 00:19:11;;;;;;;1.73;0.67;;;;;;;4.43;100.00;101518.75;2087909;28;20275;-68
2024/01/20 00:20:12;;;;;;;1.13;0.57;;;;;;;4.83;100.00;101593.06;2088151;28;20198;-69
2024/01/20 00:21:12;;;;;;;1.60;0.80;;;;;;;4.84;100.00;101610.34;2087827;28;20674;-69
2024/01/20 00:22:13;;;;;;;0.63;0.60;;;;;;;4.79;100.00;101613.41;2088966;28;20571;-69
2024/01/20 00:23:14;;;;;;;1.07;0.63;;;;;;;4.74;100.00;101621.97;2086233;28;20220;-68
2024/01/20 00:24:14;;;;;;;0.73;0.60;;;;;;;4.67;100.00;101617.16;2088354;28;20199;-69
2024/01/20 00:25:14;;;;;;;1.80;0.93;;;;;;;4.58;100.00;101600.16;2087190;28;20282;-69
2024/01/20 00:26:15;;;;;;;2.40;0.90;;;;;;;4.49;100.00;101618.03;2087850;28;20223;-68
2024/01/20 00:27:16;;;;;;;0.63;0.60;;;;;;;4.46;100.00;101614.06;2087155;28;20285;-69
2024/01/20 00:28:18;;;;;;;1.00;0.60;;;;;;;4.41;100.00;101613.59;2087270;28;20211;-69
2024/01/20 00:29:18;;;;;;;1.67;1.05;;;;;;;4.39;100.00;101643.34;2088144;28;20184;-68
2024/01/20 00:30:19;;;;;;;2.57;1.10;;;;;;;3.87;100.00;101564.47;2088747;28;20187;-69
2024/01/20 00:31:19;;;;;;;1.63;0.83;;;;;;;4.26;100.00;101609.81;2088204;28;20249;-68
2024/01/20 00:32:20;;;;;;;1.83;0.80;;;;;;;4.23;100.00;101623.47;2087898;28;20600;-68
2024/01/20 00:33:20;;;;;;;2.53;1.43;;;;;;;4.22;100.00;101636.41;2086376;28;20202;-68
2024/01/20 00:34:21;;;;;;;2.10;1.40;;;;;;;4.24;100.00;101625.84;2087307;28;20636;-68
2024/01/20 00:35:22;;;;;;;2.63;1.07;;;;;;;4.18;100.00;101619.09;2087644;28;20197;-69
2024/01/20 00:36:22;;;;;;;0.77;0.67;;;;;;;4.08;100.00;101622.44;2087933;28;20191;-68
2024/01/20 00:37:23;;;;;;;1.67;1.00;;;;;;;4.00;100.00;101617.97;2087884;28;20191;-69
2024/01/20 00:38:25;;;;;;;1.73;1.20;;;;;;;3.91;100.00;101628.38;2088791;28;20243;-68
2024/01/20 00:39:26;;;;;;;2.22;1.25;;;;;;;2.93;100.00;101478.44;2087996;28;20199;-68
2024/01/20 00:40:27;;;;;;;2.70;1.40;;;;;;;3.85;100.00;101632.56;2087643;28;20192;-69
2024/01/20 00:41:27;;;;;;;1.13;0.75;;;;;;;3.86;100.00;101636.88;2088146;28;20273;-69
2024/01/20 00:42:28;;;;;;;2.30;1.30;;;;;;;3.92;100.00;101629.97;2087744;28;20313;-68
2024/01/20 00:43:28;;;;;;;1.50;1.27;;;;;;;3.87;100.00;101633.00;2086760;28;20217;-68
2024/01/20 00:44:29;;;;;;;1.90;1.20;;;;;;;3.93;100.00;101649.94;2087280;28;20607;-68
2024/01/20 00:45:30;;;;;;;2.63;1.10;;;;;;;3.91;100.00;101636.59;2087486;28;20660;-69
2024/01/20 00:46:30;;;;;;;1.67;0.97;;;;;;;3.94;100.00;101640.56;2087477;28;20180;-68
2024/01/20 00:47:31;;;;;;;4.57;1.33;;;;;;;3.04;100.00;101498.63;2088584;28;20689;-68
2024/01/20 00:48:31;;;;;;;2.17;1.37;;;;;;;3.53;100.00;101572.78;2087452;28;20194;-68
2024/01/20 00:49:32;;;;;;;1.40;1.03;;;;;;;3.84;100.00;101627.47;2088089;28;20624;-68
2024/01/20 00:50:32;;;;;;;2.17;1.17;;;;;;;3.92;100.00;101629.16;2087298;28;20223;-68
2024/01/20 00:51:33;;;;;;;2.47;1.40;;;;;;;4.02;100.00;101656.81;2087461;28;20244;-68
2024/01/20 00:52:33;;;;;;;2.97;1.40;;;;;;;3.83;100.00;101645.84;2087536;28;20201;-68
2024/01/20 00:53:34;;;;;;;2.87;1.30;;;;;;;3.97;100.00;101676.31;2087187;28;20191;-68
2024/01/20 00:54:34;;;;;;;2.70;1.70;;;;;;;3.91;100.00;101671.47;2087367;28;20190;-68
2024/01/20 00:55:35;;;;;;;2.10;1.33;;;;;;;3.91;100.00;101694.19;2088608;28;20187;-69
2024/01/20 00:56:35;;;;;;;3.03;1.43;;;;;;;3.88;100.00;101662.00;2086767;28;20217;-68
2024/01/20 00:57:36;;;;;;;2.23;1.10;;;;;;;3.94;100.00;101682.50;2087468;28;20555;-68
2024/01/20 00:58:37;;;;;;;1.65;1.25;;;;;;;3.93;100.00;101691.09;2087906;28;20194;-68
2024/01/20 00:59:37;;;;;;;1.77;1.10;;;;;;;3.88;100.00;101689.44;2088203;28;20190;-69
2024/01/20 01:00:38;;;;;;;2.33;1.50;;;;;;;3.76;100.00;101675.88;2087097;28;20194;-68
2024/01/20 01:01:38;;;;;;;3.23;1.47;;;;;;;3.84;100.00;101690.53;2087071;28;20239;-68
2024/01/20 01:02:40;;;;;;;2.40;1.30;;;;;;;3.90;100.00;101695.34;2087205;28;20259;-69
2024/01/20 01:03:42;;;;;;;2.78;1.60;;;;;;;3.95;100.00;101694.28;2087564;28;20186;-68
2024/01/20 01:04:43;;;;;;;2.40;1.52;;;;;;;3.81;100.00;101664.63;2087517;28;20605;-69
2024/01/20 01:05:44;;;;;;;2.97;1.77;;;;;;;3.90;100.00;101687.09;2087606;28;20210;-68
2024/01/20 01:06:44;;;;;;;2.83;1.50;;;;;;;3.78;100.00;101648.06;2086527;28;20290;-68
2024/01/20 01:07:45;;;;;;;4.73;1.97;;;;;;;4.03;100.00;101691.31;2087932;28;20230;-68
2024/01/20 01:08:45;;;;;;;1.97;1.37;;;;;;;4.06;100.00;101712.50;2087838;28;20199;-69
2024/01/20 01:09:46;;;;;;;3.60;1.70;;;;;;;3.93;100.00;101669.94;2087225;28;20284;-69
2024/01/20 01:10:46;;;;;;;1.97;1.30;;;;;;;4.06;100.00;101689.78;2086696;28;20198;-69
2024/01/20 01:11:47;;;;;;;3.27;1.83;;;;;;;4.08;100.00;101691.00;2088074;28;20272;-68
2024/01/20 01:12:47;;;;;;;2.40;1.70;;;;;;;4.11;100.00;101703.22;2087367;28;20618;-68
2024/01/20 01:13:48;;;;;;;2.37;1.57;;;;;;;4.10;100.00;101693.41;2086964;28;20217;-68
2024/01/20 01:14:48;;;;;;;2.27;1.30;;;;;;;4.09;100.00;101702.75;2086589;28;20203;-68
2024/01/20 01:15:49;;;;;;;2.53;1.50;;;;;;;4.04;100.00;101701.13;2087491;28;20652;-68
2024/01/20 01:16:49;;;;;;;2.13;1.50;;;;;;;4.04;100.00;101692.88;2087395;28;20383;-68
2024/01/20 01:17:50;;;;;;;2.60;1.40;;;;;;;4.11;100.00;101701.25;2087891;28;20188;-69
2024/01/20 01:18:50;;;;;;;3.30;2.00;;;;;;;4.10;100.00;101699.66;2087377;28;20237;-69
2024/01/20 01:19:51;;;;;;;3.00;1.60;;;;;;;4.14;100.00;101696.97;2087895;28;20249;-69
2024/01/20 01:20:51;;;;;;;3.50;1.90;;;;;;;4.10;100.00;101699.66;2088345;28;20335;-69
2024/01/20 01:21:52;;;;;;;4.13;1.70;;;;;;;3.98;100.00;101699.00;2087688;28;20274;-68
2024/01/20 01:22:53;;;;;;;5.10;1.77;;;;;;;3.98;100.00;101699.81;2086867;28;20194;-69
2024/01/20 01:23:53;;;;;;;3.83;1.73;;;;;;;4.04;100.00;101708.53;2086629;28;20235;-69
2024/01/20 01:24:54;;;;;;;5.87;1.90;;;;;;;4.06;100.00;101714.47;2086731;28;20195;-69
2024/01/20 01:25:54;;;;;;;2.63;1.60;;;;;;;4.08;100.00;101709.41;2087453;28;20223;-68
2024/01/20 01:26:55;;;;;;;3.57;1.73;;;;;;;4.13;100.00;101709.13;2087320;28;20188;-69
2024/01/20 01:27:56;;;;;;;2.70;1.67;;;;;;;4.11;100.00;101714.97;2087672;28;20188;-69
2024/01/20 01:28:56;;;;;;;2.55;1.75;;;;;;;3.05;100.00;101554.19;2088193;28;20654;-69
2024/01/20 01:29:57;;;;;;;3.23;1.80;;;;;;;4.10;100.00;101720.81;2087933;28;20630;-68
2024/01/20 01:30:57;;;;;;;3.27;1.93;;;;;;;3.81;100.00;101667.38;2087153;28;20669;-68
2024/01/20 01:31:58;;;;;;;2.93;1.87;;;;;;;4.09;100.00;101711.78;2087178;28;20204;-69
2024/01/20 01:32:58;;;;;;;3.57;1.97;;;;;;;4.09;100.00;101713.72;2086688;28;20192;-68
2024/01/20 01:33:59;;;;;;;3.50;1.80;;;;;;;4.09;100.00;101714.53;2086315;28;20261;-68
2024/01/20 01:34:59;;;;;;;6.33;1.90;;;;;;;4.11;100.00;101714.97;2086010;28;20387;-68
2024/01/20 01:36:00;;;;;;;3.07;1.67;;;;;;;4.12;100.00;101721.25;2087525;28;20248;-68
2024/01/20 01:37:00;;;;;;;4.67;2.13;;;;;;;3.70;100.00;101654.59;2087957;28;20183;-69
2024/01/20 01:38:01;;;;;;;5.20;1.87;;;;;;;3.13;100.00;101570.41;2087792;28;20206;-68
2024/01/20 01:39:01;;;;;;;4.67;2.10;;;;;;;4.12;100.00;101716.56;2087473;28;20337;-69
2024/01/20 01:40:02;;;;;;;4.57;2.07;;;;;;;4.09;100.00;101721.97;2086983;28;20608;-68
2024/01/20 01:41:03;;;;;;;2.83;1.63;;;;;;;4.11;100.00;101720.44;2087070;28;20194;-69
2024/01/20 01:42:04;;;;;;;3.33;1.90;;;;;;;4.14;100.00;101716.19;2086810;28;20229;-69
2024/01/20 01:43:04;;;;;;;2.87;1.60;;;;;;;4.13;100.00;101715.41;2086643;28;20232;-68
2024/01/20 01:44:05;;;;;;;3.33;1.80;;;;;;;3.66;100.00;101670.97;2087033;28;20656;-68
2024/01/20 01:45:06;;;;;;;3.33;1.70;;;;;;;3.79;100.00;101663.41;2087681;28;20202;-68
2024/01/20 01:46:08;;;;;;;2.90;1.45;;;;;;;3.61;100.00;101638.38;2087185;28;20558;-69
2024/01/20 01:47:09;;;;;;;2.83;1.30;;;;;;;4.09;100.00;101716.47;2087377;28;20191;-68
2024/01/20 01:48:10;;;;;;;4.18;1.63;;;;;;;4.08;100.00;101717.63;2087006;28;20591;-69
2024/01/20 01:49:11;;;;;;;2.27;1.53;;;;;;;4.11;100.00;101712.22;2086335;28;20226;-69
2024/01/20 01:50:11;;;;;;;3.13;1.83;;;;;;;3.38;100.00;101603.81;2087683;28;20188;-69
2024/01/20 01:51:15;;;;;;;2.37;1.37;;;;;;;4.22;100.00;101713.25;2087251;28;20312;-69
2024/01/20 01:52:17;;;;;;;3.53;1.67;;;;;;;4.09;100.00;101703.56;2087292;28;20721;-69
2024/01/20 01:53:19;;;;;;;3.05;1.75;;;;;;;4.34;100.00;101728.72;2086435;28;20187;-69
2024/01/20 01:54:21;;;;;;;2.97;1.63;;;;;;;4.37;100.00;101728.78;2088095;28;20191;-68
2024/01/20 01:55:24;;;;;;;1.95;1.30;;;;;;;4.37;100.00;101720.56;2087235;28;20194;-69
2024/01/20 01:56:24;;;;;;;2.45;1.50;;;;;;;4.37;100.00;101725.25;2087655;28;20244;-68
2024/01/20 01:57:25;;;;;;;3.00;1.80;;;;;;;4.32;100.00;101731.81;2087574;28;20291;-69
2024/01/20 01:58:27;;;;;;;3.50;1.40;;;;;;;4.18;100.00;101728.84;2087478;28;20280;-68
2024/01/20 01:59:31;;;;;;;2.90;1.63;;;;;;;4.28;100.00;101733.72;2087635;28;20277;-69
2024/01/20 02:00:32;;;;;;;3.08;1.60;;;;;;;3.47;100.00;101605.19;2087148;28;20205;-69
2024/01/20 02:01:32;;;;;;;3.60;2.17;;;;;;;4.28;100.00;101730.97;2086585;28;20190;-69
2024/01/20 02:02:33;;;;;;;2.17;1.43;;;;;;;4.27;100.00;101726.63;2086666;28;20645;-69
2024/01/20 02:03:34;;;;;;;3.07;1.73;;;;;;;4.12;100.00;101702.03;2086382;28;20704;-70
2024/01/20 02:04:34;;;;;;;2.93;1.50;;;;;;;4.25;100.00;101728.97;2086833;28;20188;-68
2024/01/20 02:05:35;;;;;;;2.40;1.43;;;;;;;4.17;100.00;101715.47;2087549;28;20649;-69
2024/01/20 02:06:35;;;;;;;3.17;1.60;;;;;;;4.29;100.00;101729.00;2087122;28;20196;-68
2024/01/20 02:07:38;;;;;;;2.70;1.47;;;;;;;4.30;100.00;101725.91;2087236;28;20192;-69
2024/01/20 02:08:40;;;;;;;2.40;1.30;;;;;;;4.22;100.00;101729.69;2086376;28;20631;-68
2024/01/20 02:09:41;;;;;;;3.25;1.42;;;;;;;4.22;100.00;101721.47;2086801;28;20623;-69
2024/01/20 02:10:42;;;;;;;2.05;1.40;;;;;;;4.21;100.00;101736.31;2086548;28;20244;-68
2024/01/20 02:11:44;;;;;;;3.50;1.75;;;;;;;4.16;100.00;101735.84;2086926;28;20640;-68
2024/01/20 02:12:45;;;;;;;3.55;1.50;;;;;;;4.19;100.00;101735.09;2087820;28;20272;-68
2024/01/20 02:13:46;;;;;;;1.45;1.10;;;;;;;4.16;100.00;101733.88;2087256;28;20657;-68
2024/01/20 02:14:47;;;;;;;3.37;1.50;;;;;;;4.26;100.00;101746.22;2087177;28;20198;-69
2024/01/20 02:15:48;;;;;;;2.35;1.50;;;;;;;4.24;100.00;101735.59;2086854;28;20190;-69
2024/01/20 02:16:49;;;;;;;2.17;1.23;;;;;;;4.32;100.00;101744.78;2086601;28;20296;-68
2024/01/20 02:17:54;;;;;;;3.17;1.33;;;;;;;4.33;100.00;101749.91;2086677;28;20203;-68
2024/01/20 02:19:07;;;;;;;3.28;1.70;;;;;;;4.34;100.00;101754.22;2086063;28;20194;-69
2024/01/20 02:20:08;;;;;;;3.90;1.55;;;;;;;4.29;100.00;101737.25;2086852;28;20195;-69
2024/01/20 02:21:08;;;;;;;2.40;1.17;;;;;;;4.28;100.00;101750.19;2086597;28;20222;-68
2024/01/20 02:22:13;;;;;;;2.40;1.20;;;;;;;4.34;100.00;101748.75;2087369;28;20471;-69
2024/01/20 02:23:13;;;;;;;2.33;1.25;;;;;;;4.40;100.00;101747.28;2086576;28;20187;-69
2024/01/20 02:24:14;;;;;;;1.70;1.00;;;;;;;4.41;100.00;101754.34;2088047;28;20184;-69
2024/01/20 02:25:15;;;;;;;2.53;1.30;;;;;;;4.34;100.00;101750.69;2087090;28;20205;-68
2024/01/20 02:26:15;;;;;;;3.30;2.10;;;;;;;4.33;100.00;101760.06;2087445;28;20226;-69
2024/01/20 02:27:17;;;;;;;2.23;1.30;;;;;;;4.39;100.00;101769.59;2085865;28;20446;-69
2024/01/20 02:28:18;;;;;;;2.33;1.40;;;;;;;4.35;100.00;101765.97;2087242;28;20188;-69
2024/01/20 02:29:18;;;;;;;1.97;1.27;;;;;;;4.42;100.00;101766.91;2087236;28;20250;-68
2024/01/20 02:30:19;;;;;;;3.37;1.47;;;;;;;4.44;100.00;101774.78;2087491;28;20186;-69
2024/01/20 02:31:19;;;;;;;2.17;1.40;;;;;;;4.43;100.00;101764.97;2087576;28;20183;-69
2024/01/20 02:32:20;;;;;;;3.77;1.63;;;;;;;4.57;100.00;101782.50;2087222;28;20180;-69
2024/01/20 02:33:20;;;;;;;1.83;1.00;;;;;;;4.40;100.00;101782.16;2086305;28;20187;-68
2024/01/20 02:34:21;;;;;;;3.47;1.10;;;;;;;4.39;100.00;101783.31;2087314;28;20195;-68
2024/01/20 02:35:21;;;;;;;1.47;1.20;;;;;;;4.36;100.00;101778.56;2087027;28;20222;-69
2024/01/20 02:36:22;;;;;;;2.20;1.13;;;;;;;3.42;100.00;101624.66;2087324;28;20290;-68
2024/01/20 02:37:22;;;;;;;1.30;1.10;;;;;;;4.44;100.00;101788.50;2087256;28;20200;-69
2024/01/20 02:38:23;;;;;;;1.73;1.13;;;;;;;4.43;100.00;101792.41;2087421;28;20929;-69
2024/01/20 02:39:23;;;;;;;1.90;1.27;;;;;;;4.36;100.00;101786.81;2086270;28;20219;-68
2024/01/20 02:40:24;;;;;;;3.20;1.40;;;;;;;4.34;100.00;101780.88;2087209;28;20187;-69
2024/01/20 02:41:24;;;;;;;3.33;1.47;;;;;;;4.35;100.00;101777.75;2088168;28;20636;-68
2024/01/20 02:42:25;;;;;;;3.77;1.40;;;;;;;4.40;100.00;101771.16;2086450;28;20199;-69
2024/01/20 02:43:26;;;;;;;1.77;1.23;;;;;;;4.35;100.00;101755.81;2086242;28;20211;-68
2024/01/20 02:44:26;;;;;;;2.33;1.60;;;;;;;4.47;100.00;101777.59;2086644;28;20687;-69
2024/01/20 02:45:27;;;;;;;2.20;1.37;;;;;;;4.45;100.00;101787.34;2087155;28;20199;-69
2024/01/20 02:46:27;;;;;;;2.37;1.13;;;;;;;4.53;100.00;101786.34;2087266;28;20208;-68
2024/01/20 02:47:28;;;;;;;2.70;1.20;;;;;;;4.52;100.00;101788.28;2087271;28;20183;-69
2024/01/20 02:48:29;;;;;;;2.10;1.13;;;;;;;4.55;100.00;101795.00;2086842;28;20696;-68
2024/01/20 02:49:31;;;;;;;1.80;1.05;;;;;;;4.50;100.00;101776.88;2087312;28;20233;-69
2024/01/20 02:50:31;;;;;;;2.92;1.25;;;;;;;4.60;100.00;101790.00;2086754;28;20192;-68
2024/01/20 02:51:32;;;;;;;2.00;1.10;;;;;;;4.51;100.00;101781.22;2086866;28;20207;-69
2024/01/20 02:52:32;;;;;;;3.17;1.10;;;;;;;4.55;100.00;101790.31;2086587;28;20274;-69
2024/01/20 02:53:33;;;;;;;2.37;1.17;;;;;;;3.35;100.00;101610.00;2085799;28;20611;-69
2024/01/20 02:54:33;;;;;;;2.07;1.20;;;;;;;4.60;100.00;101789.22;2086721;28;20682;-69
2024/01/20 02:55:34;;;;;;;2.73;1.30;;;;;;;4.61;100.00;101805.31;2087442;28;20210;-68
2024/01/20 02:56:34;;;;;;;2.13;1.20;;;;;;;4.63;100.00;101794.78;2087090;28;20249;-69
2024/01/20 02:57:35;;;;;;;2.73;1.57;;;;;;;4.57;100.00;101795.44;2087910;28;20199;-69
2024/01/20 02:58:35;;;;;;;3.53;1.53;;;;;;;4.63;100.00;101802.22;2086820;28;20204;-69
2024/01/20 02:59:36;;;;;;;2.90;1.67;;;;;;;4.39;100.00;101755.88;2087427;28;20274;-68
2024/01/20 03:00:36;;;;;;;2.30;1.43;;;;;;;4.63;100.00;101802.22;2086584;28;20218;-69
2024/01/20 03:01:37;;;;;;;3.50;1.50;;;;;;;4.42;100.00;101775.16;2087412;28;20237;-68
2024/01/20 03:02:37;;;;;;;2.03;1.20;;;;;;;4.49;100.00;101801.94;2087201;28;20203;-68
2024/01/20 03:03:38;;;;;;;1.80;1.30;;;;;;;4.43;100.00;101800.66;2086288;28;20187;-68
2024/01/20 03:04:38;;;;;;;2.10;1.23;;;;;;;4.38;100.00;101787.22;2086204;28;20191;-68
2024/01/20 03:05:39;;;;;;;2.10;1.23;;;;;;;4.41;100.00;101792.00;2087950;28;20199;-69
2024/01/20 03:06:39;;;;;;;2.87;1.00;;;;;;;4.09;100.00;101747.44;2087131;28;20195;-68
2024/01/20 03:07:40;;;;;;;2.40;1.30;;;;;;;4.48;100.00;101789.38;2087223;28;20191;-68
2024/01/20 03:08:40;;;;;;;2.87;1.53;;;;;;;4.37;100.00;101775.44;2087098;28;20461;-69
2024/01/20 03:09:41;;;;;;;1.80;1.00;;;;;;;4.33;100.00;101796.56;2087318;28;20192;-68
2024/01/20 03:10:42;;;;;;;2.77;1.60;;;;;;;4.29;100.00;101775.66;2085796;28;20195;-68
2024/01/20 03:11:42;;;;;;;1.83;1.30;;;;;;;4.37;100.00;101791.13;2087167;28;20560;-69
2024/01/20 03:12:43;;;;;;;2.80;1.57;;;;;;;4.40;100.00;101802.16;2087554;28;20202;-68
2024/01/20 03:13:44;;;;;;;2.50;1.50;;;;;;;4.35;100.00;101793.41;2086084;28;20716;-68
2024/01/20 03:14:44;;;;;;;2.20;1.50;;;;;;;4.39;100.00;101802.53;2087303;28;20274;-68
2024/01/20 03:15:45;;;;;;;2.27;1.30;;;;;;;4.32;100.00;101802.41;2087450;28;20229;-69
2024/01/20 03:16:45;;;;;;;2.57;1.53;;;;;;;4.24;100.00;101792.41;2086917;28;20194;-69
2024/01/20 03:17:46;;;;;;;2.23;1.60;;;;;;;4.14;100.00;101795.75;2087404;28;20196;-69
2024/01/20 03:18:46;;;;;;;2.77;1.37;;;;;;;4.17;100.00;101789.53;2086009;28;20253;-68
2024/01/20 03:19:47;;;;;;;2.27;1.43;;;;;;;4.15;100.00;101797.34;2086011;28;20192;-68
2024/01/20 03:20:47;;;;;;;2.67;1.50;;;;;;;4.10;100.00;101800.38;2088185;28;20200;-68
2024/01/20 03:21:48;;;;;;;1.83;1.30;;;;;;;4.12;100.00;101803.53;2089447;28;20276;-68
2024/01/20 03:22:49;;;;;;;2.28;1.30;;;;;;;4.07;100.00;101801.91;2088121;28;20695;-68
2024/01/20 03:23:49;;;;;;;3.50;1.83;;;;;;;4.08;100.00;101810.91;2087996;28;20224;-68
2024/01/20 03:24:50;;;;;;;3.73;1.50;;;;;;;4.04;100.00;101799.06;2088037;28;20357;-68
2024/01/20 03:25:50;;;;;;;5.57;1.70;;;;;;;4.03;100.00;101814.75;2087719;28;20217;-68
2024/01/20 03:26:54;;;;;;;2.30;1.33;;;;;;;3.94;100.00;101802.34;2087115;28;20204;-68
2024/01/20 03:27:54;;;;;;;1.85;1.40;;;;;;;4.02;100.00;101815.91;2088576;28;20183;-68
2024/01/20 03:28:55;;;;;;;2.73;1.50;;;;;;;3.79;100.00;101760.13;2088325;28;20249;-69
2024/01/20 03:29:55;;;;;;;2.53;1.63;;;;;;;4.16;100.00;101818.91;2089025;28;20186;-69
2024/01/20 03:30:56;;;;;;;2.13;1.57;;;;;;;4.15;100.00;101811.84;2089043;28;20183;-69
2024/01/20 03:31:57;;;;;;;4.07;1.63;;;;;;;4.15;100.00;101814.59;2088664;28;20278;-68
2024/01/20 03:32:57;;;;;;;2.80;1.50;;;;;;;4.17;100.00;101819.72;2088457;28;20657;-68
2024/01/20 03:33:58;;;;;;;2.83;1.80;;;;;;;4.14;100.00;101812.19;2087968;28;20191;-68
2024/01/20 03:34:58;;;;;;;2.60;1.50;;;;;;;4.12;100.00;101817.25;2088104;28;20477;-68
2024/01/20 03:35:59;;;;;;;2.10;1.40;;;;;;;4.03;100.00;101792.78;2088572;28;20271;-68
2024/01/20 03:36:59;;;;;;;2.57;1.47;;;;;;;4.12;100.00;101807.09;2087874;28;20192;-69
2024/01/20 03:38:00;;;;;;;2.40;1.27;;;;;;;3.62;100.00;101748.78;2087827;28;20751;-69
2024/01/20 03:39:01;;;;;;;3.07;1.97;;;;;;;4.05;100.00;101833.59;2088359;28;20266;-68
2024/01/20 03:40:02;;;;;;;4.97;2.20;;;;;;;4.03;100.00;101806.50;2088666;28;20187;-68
2024/01/20 03:41:03;;;;;;;1.80;1.20;;;;;;;4.03;100.00;101822.97;2088497;28;20207;-68
2024/01/20 03:42:03;;;;;;;2.17;1.40;;;;;;;3.97;100.00;101794.25;2087584;28;20261;-69
2024/01/20 03:43:04;;;;;;;3.40;1.97;;;;;;;4.03;100.00;101802.97;2088098;28;20670;-69
2024/01/20 03:44:04;;;;;;;1.87;1.23;;;;;;;4.09;100.00;101821.53;2088135;28;20208;-68
2024/01/20 03:45:05;;;;;;;2.53;1.37;;;;;;;4.10;100.00;101836.81;2087483;28;20191;-68
2024/01/20 03:46:06;;;;;;;2.27;1.50;;;;;;;4.01;100.00;101828.00;2088440;28;20209;-68
2024/01/20 03:47:06;;;;;;;1.93;1.20;;;;;;;3.26;100.00;101713.53;2088700;28;20217;-68
2024/01/20 03:48:07;;;;;;;3.23;1.60;;;;;;;4.02;100.00;101829.59;2087573;28;20529;-68
2024/01/20 03:49:07;;;;;;;2.53;1.50;;;;;;;4.05;100.00;101833.59;2088062;28;20242;-68
2024/01/20 03:50:09;;;;;;;3.30;1.57;;;;;;;4.06;100.00;101830.47;2088983;28;20294;-69
2024/01/20 03:51:10;;;;;;;2.65;1.70;;;;;;;3.98;100.00;101811.47;2088238;28;20255;-68
2024/01/20 03:52:10;;;;;;;3.13;1.53;;;;;;;4.04;100.00;101832.78;2088124;28;20307;-68
2024/01/20 03:53:11;;;;;;;2.43;1.47;;;;;;;4.05;100.00;101844.56;2087665;28;20183;-69
2024/01/20 03:54:11;;;;;;;3.57;1.80;;;;;;;4.04;100.00;101826.47;2088220;28;20245;-68
2024/01/20 03:55:12;;;;;;;3.20;1.60;;;;;;;4.08;100.00;101838.34;2087887;28;20190;-69
2024/01/20 03:56:12;;;;;;;3.30;2.07;;;;;;;4.02;100.00;101826.06;2088119;28;20180;-68
2024/01/20 03:57:13;;;;;;;3.30;1.40;;;;;;;4.13;100.00;101833.38;2088316;28;20653;-69
2024/01/20 03:58:13;;;;;;;2.43;1.67;;;;;;;4.13;100.00;101838.84;2088320;28;20190;-69
2024/01/20 03:59:14;;;;;;;3.30;1.70;;;;;;;3.63;100.00;101766.81;2088185;28;20279;-69
2024/01/20 04:00:15;;;;;;;3.73;1.97;;;;;;;4.07;100.00;101815.63;2088416;28;20202;-69
2024/01/20 04:01:15;;;;;;;3.67;1.73;;;;;;;4.23;100.00;101838.28;2088082;28;20260;-69
2024/01/20 04:02:16;;;;;;;3.13;2.33;;;;;;;4.15;100.00;101836.53;2087180;28;20638;-69
2024/01/20 04:03:16;;;;;;;5.70;1.77;;;;;;;4.14;100.00;101834.94;2087488;28;20180;-68
2024/01/20 04:04:17;;;;;;;4.33;2.20;;;;;;;4.08;100.00;101835.59;2089045;28;20311;-68
2024/01/20 04:05:17;;;;;;;3.60;2.10;;;;;;;4.05;100.00;101831.63;2087667;28;20195;-69
2024/01/20 04:06:18;;;;;;;2.87;1.87;;;;;;;4.10;100.00;101828.59;2088460;28;20297;-68
2024/01/20 04:07:18;;;;;;;3.20;1.83;;;;;;;3.98;100.00;101806.78;2087336;28;20241;-68
2024/01/20 04:08:19;;;;;;;5.70;2.00;;;;;;;4.15;100.00;101830.28;2088194;28;20696;-68
2024/01/20 04:09:22;;;;;;;3.93;2.20;;;;;;;4.16;100.00;101835.38;2087020;28;20634;-68
2024/01/20 04:10:22;;;;;;;3.78;2.22;;;;;;;4.10;100.00;101842.31;2088190;28;20192;-69
2024/01/20 04:11:23;;;;;;;4.60;2.13;;;;;;;4.15;100.00;101822.03;2088224;28;20191;-69
2024/01/20 04:12:24;;;;;;;3.60;2.03;;;;;;;4.23;100.00;101826.50;2088954;28;20214;-68
2024/01/20 04:13:24;;;;;;;3.90;2.30;;;;;;;4.13;100.00;101805.94;2087582;28;20203;-68
2024/01/20 04:14:25;;;;;;;4.47;1.93;;;;;;;4.06;100.00;101800.28;2088079;28;20260;-68
2024/01/20 04:15:25;;;;;;;3.90;2.50;;;;;;;4.14;100.00;101809.47;2087010;28;20249;-68
2024/01/20 04:16:26;;;;;;;4.47;1.97;;;;;;;4.21;100.00;101832.34;2087975;28;20187;-68
2024/01/20 04:17:27;;;;;;;3.77;1.93;;;;;;;4.29;100.00;101825.88;2088312;28;20314;-68
2024/01/20 04:18:27;;;;;;;4.00;2.10;;;;;;;3.94;100.00;101774.94;2088164;28;20191;-69
2024/01/20 04:19:27;;;;;;;3.80;2.20;;;;;;;4.32;100.00;101838.84;2088225;28;20192;-68
2024/01/20 04:20:28;;;;;;;2.97;1.87;;;;;;;4.23;100.00;101832.00;2088834;28;20234;-68
2024/01/20 04:21:29;;;;;;;4.57;2.40;;;;;;;4.18;100.00;101840.50;2088750;28;20199;-68
2024/01/20 04:22:29;;;;;;;3.13;2.00;;;;;;;4.25;100.00;101838.72;2088089;28;20197;-69
2024/01/20 04:23:30;;;;;;;3.23;2.17;;;;;;;4.28;100.00;101837.19;2087303;28;20196;-68
2024/01/20 04:24:30;;;;;;;2.43;1.60;;;;;;;4.28;100.00;101835.25;2087746;28;20188;-69
2024/01/20 04:25:31;;;;;;;4.00;1.63;;;;;;;4.29;100.00;101836.84;2088141;28;20565;-68
2024/01/20 04:26:31;;;;;;;3.70;2.30;;;;;;;4.32;100.00;101833.34;2087707;28;20188;-68
2024/01/20 04:27:33;;;;;;;2.77;1.50;;;;;;;4.27;100.00;101827.38;2087132;28;20208;-68
2024/01/20 04:28:34;;;;;;;3.08;1.73;;;;;;;4.23;100.00;101821.81;2087178;28;20220;-69
2024/01/20 04:29:34;;;;;;;2.67;1.53;;;;;;;4.33;100.00;101825.94;2088828;28;20222;-68
2024/01/20 04:30:35;;;;;;;4.73;2.23;;;;;;;4.29;100.00;101833.28;2087100;28;20253;-68
2024/01/20 04:31:35;;;;;;;2.93;1.70;;;;;;;4.30;100.00;101841.16;2088049;28;20209;-68
2024/01/20 04:32:36;;;;;;;4.20;2.03;;;;;;;4.00;100.00;101789.97;2088143;28;20287;-68
2024/01/20 04:33:39;;;;;;;3.20;1.90;;;;;;;4.43;100.00;101845.38;2087132;28;20604;-69
2024/01/20 04:34:39;;;;;;;4.28;1.85;;;;;;;4.39;100.00;101841.75;2086973;28;20197;-68
2024/01/20 04:35:40;;;;;;;2.97;1.80;;;;;;;4.40;100.00;101840.59;2087321;28;20303;-69
2024/01/20 04:36:40;;;;;;;3.13;1.87;;;;;;;3.86;100.00;101754.03;2087775;28;20567;-68
2024/01/20 04:37:41;;;;;;;3.23;2.00;;;;;;;4.37;100.00;101837.78;2088757;28;20181;-68
2024/01/20 04:38:41;;;;;;;3.57;1.93;;;;;;;4.33;100.00;101831.41;2088047;28;20199;-68
2024/01/20 04:39:42;;;;;;;3.63;2.13;;;;;;;4.34;100.00;101844.78;2088208;28;20191;-69
2024/01/20 04:40:42;;;;;;;3.43;1.83;;;;;;;4.39;100.00;101850.00;2087988;28;20665;-68
2024/01/20 04:41:43;;;;;;;4.57;2.20;;;;;;;4.42;100.00;101854.75;2086975;28;20230;-68
2024/01/20 04:42:43;;;;;;;3.57;1.90;;;;;;;4.33;100.00;101837.72;2086453;28;20713;-68